createdAt,value
2019-01-02T00:00:36.203Z,102828.84
2019-01-02T00:01:41.436Z,102832.80
2019-01-02T00:02:46.951Z,102830.23
2019-01-02T00:03:51.950Z,102834.53
2019-01-02T00:04:57.135Z,102833.66
2019-01-02T00:06:02.326Z,102840.67
2019-01-02T00:07:07.220Z,102849.39
2019-01-02T00:08:12.195Z,102847.59
2019-01-02T00:09:17.396Z,102843.09
2019-01-02T00:10:22.334Z,102849.08
2019-01-02T00:11:27.510Z,102849.05
2019-01-02T00:12:32.688Z,102844.58
2019-01-02T00:13:37.606Z,102838.79
2019-01-02T00:14:42.530Z,102841.40
2019-01-02T00:15:47.801Z,102840.95
2019-01-02T00:16:52.969Z,102851.40
2019-01-02T00:17:57.877Z,102846.55
2019-01-02T00:19:02.870Z,102849.98
2019-01-02T00:20:10.442Z,102846.03
2019-01-02T00:21:15.400Z,102848.63
2019-01-02T00:22:20.381Z,102850.41
2019-01-02T00:23:25.475Z,102850.41
2019-01-02T00:24:30.876Z,102851.27
2019-01-02T00:25:35.800Z,102858.70
2019-01-02T00:26:40.997Z,102856.06
2019-01-02T00:27:46.023Z,102856.91
2019-01-02T00:28:51.192Z,102863.88
2019-01-02T00:29:56.723Z,102863.44
2019-01-02T00:31:01.640Z,102857.23
2019-01-02T00:32:06.721Z,102854.97
2019-01-02T00:33:11.905Z,102855.39
2019-01-02T00:34:17.059Z,102860.15
2019-01-02T00:35:22.058Z,102856.19
2019-01-02T00:36:27.254Z,102854.88
2019-01-02T00:37:32.184Z,102853.63
2019-01-02T00:38:37.350Z,102845.70
2019-01-02T00:39:42.554Z,102847.48
2019-01-02T00:40:47.530Z,102848.80
2019-01-02T00:41:52.510Z,102850.11
2019-01-02T00:42:57.729Z,102856.71
2019-01-02T00:44:02.654Z,102861.63
2019-01-02T00:45:08.924Z,102854.62
2019-01-02T00:46:14.214Z,102859.00
2019-01-02T00:47:19.140Z,102854.62
2019-01-02T00:48:24.130Z,102858.58
2019-01-02T00:49:29.576Z,102856.39
2019-01-02T00:50:34.494Z,102858.16
2019-01-02T00:51:39.399Z,102862.98
2019-01-02T00:52:44.670Z,102865.17
2019-01-02T00:53:49.857Z,102863.85
2019-01-02T00:54:54.767Z,102859.44
2019-01-02T00:55:59.864Z,102860.77
2019-01-02T00:57:05.389Z,102862.95
2019-01-02T00:58:10.355Z,102856.74
2019-01-02T00:59:15.459Z,102858.92
2019-01-02T01:00:25.941Z,102859.77
2019-01-02T01:01:30.927Z,102865.05
2019-01-02T01:02:36.178Z,102858.03
2019-01-02T01:03:41.094Z,102865.94
2019-01-02T01:04:46.020Z,102867.68
2019-01-02T01:05:51.377Z,102869.45
2019-01-02T01:06:56.285Z,102863.30
2019-01-02T01:08:01.482Z,102858.89
2019-01-02T01:09:07.338Z,102867.26
2019-01-02T01:10:14.312Z,102869.48
2019-01-02T01:11:19.508Z,102880.48
2019-01-02T01:12:24.417Z,102871.22
2019-01-02T01:13:29.315Z,102872.19
2019-01-02T01:14:34.754Z,102880.03
2019-01-02T01:15:39.944Z,102855.42
2019-01-02T01:16:45.252Z,102870.80
2019-01-02T01:17:51.058Z,102863.34
2019-01-02T01:18:55.971Z,102873.79
2019-01-02T01:20:01.126Z,102878.17
2019-01-02T01:21:06.233Z,102873.31
2019-01-02T01:22:11.215Z,102875.53
2019-01-02T01:23:16.152Z,102875.50
2019-01-02T01:24:21.343Z,102876.81
2019-01-02T01:25:26.691Z,102878.17
2019-01-02T01:26:31.621Z,102883.89
2019-01-02T01:27:36.555Z,102888.78
2019-01-02T01:28:41.998Z,102885.21
2019-01-02T01:29:46.920Z,102882.58
2019-01-02T01:30:51.851Z,102878.23
2019-01-02T01:31:57.059Z,102885.28
2019-01-02T01:33:01.971Z,102883.51
2019-01-02T01:34:06.966Z,102892.23
2019-01-02T01:35:13.995Z,102892.64
2019-01-02T01:36:19.433Z,102890.01
2019-01-02T01:37:24.637Z,102886.95
2019-01-02T01:38:29.550Z,102896.64
2019-01-02T01:39:34.742Z,102893.97
2019-01-02T01:40:39.651Z,102897.47
2019-01-02T01:41:44.829Z,102900.56
2019-01-02T01:42:49.757Z,102903.14
2019-01-02T01:43:55.038Z,102899.14
2019-01-02T01:44:59.943Z,102899.14
2019-01-02T01:46:04.997Z,102895.64
2019-01-02T01:47:11.463Z,102892.55
2019-01-02T01:48:16.530Z,102893.45
2019-01-02T01:49:21.692Z,102896.09
2019-01-02T01:50:27.047Z,102889.08
2019-01-02T01:51:31.949Z,102891.71
2019-01-02T01:52:36.861Z,102898.38
2019-01-02T01:53:41.785Z,102888.78
2019-01-02T01:54:46.978Z,102901.59
2019-01-02T01:55:52.069Z,102884.53
2019-01-02T01:56:57.307Z,102888.49
2019-01-02T01:58:02.493Z,102893.41
2019-01-02T01:59:07.482Z,102894.31
2019-01-02T02:00:15.002Z,102893.51
2019-01-02T02:01:20.164Z,102900.20
2019-01-02T02:02:25.371Z,102908.53
2019-01-02T02:03:30.602Z,102908.11
2019-01-02T02:04:35.556Z,102902.41
2019-01-02T02:05:40.745Z,102901.55
2019-01-02T02:06:45.657Z,102904.66
2019-01-02T02:07:50.571Z,102907.30
2019-01-02T02:08:55.939Z,102905.11
2019-01-02T02:10:00.867Z,102898.97
2019-01-02T02:11:05.910Z,102896.78
2019-01-02T02:12:10.816Z,102898.55
2019-01-02T02:13:15.897Z,102896.88
2019-01-02T02:14:20.802Z,102892.05
2019-01-02T02:15:25.768Z,102899.16
2019-01-02T02:16:31.205Z,102919.41
2019-01-02T02:17:36.124Z,102915.10
2019-01-02T02:18:41.039Z,102923.88
2019-01-02T02:19:45.938Z,102921.66
2019-01-02T02:20:51.145Z,102924.69
2019-01-02T02:21:56.064Z,102922.89
2019-01-02T02:23:00.972Z,102921.06
2019-01-02T02:24:06.219Z,102917.52
2019-01-02T02:25:14.053Z,102921.87
2019-01-02T02:26:19.000Z,102924.92
2019-01-02T02:27:24.100Z,102920.52
2019-01-02T02:28:29.087Z,102924.92
2019-01-02T02:29:33.992Z,102922.29
2019-01-02T02:30:39.536Z,102927.11
2019-01-02T02:31:44.555Z,102918.75
2019-01-02T02:32:50.960Z,102928.79
2019-01-02T02:33:56.403Z,102922.62
2019-01-02T02:35:01.715Z,102930.02
2019-01-02T02:36:06.710Z,102925.16
2019-01-02T02:37:11.899Z,102925.13
2019-01-02T02:38:17.063Z,102925.13
2019-01-02T02:39:22.266Z,102931.66
2019-01-02T02:40:27.525Z,102926.39
2019-01-02T02:41:32.437Z,102931.21
2019-01-02T02:42:38.087Z,102919.77
2019-01-02T02:43:43.413Z,102921.92
2019-01-02T02:44:48.334Z,102925.48
2019-01-02T02:45:53.845Z,102918.89
2019-01-02T02:46:59.453Z,102923.23
2019-01-02T02:48:04.530Z,102919.77
2019-01-02T02:49:10.782Z,102913.62
2019-01-02T02:50:16.739Z,102921.44
2019-01-02T02:51:22.239Z,102923.56
2019-01-02T02:52:27.522Z,102923.98
2019-01-02T02:53:32.437Z,102919.13
2019-01-02T02:54:37.619Z,102919.95
2019-01-02T02:55:42.909Z,102926.11
2019-01-02T02:56:47.892Z,102925.30
2019-01-02T02:57:52.969Z,102918.25
2019-01-02T02:58:57.915Z,102927.04
2019-01-02T03:00:03.387Z,102926.62
2019-01-02T03:01:08.551Z,102919.95
2019-01-02T03:02:13.806Z,102917.39
2019-01-02T03:03:18.896Z,102920.02
2019-01-02T03:04:23.856Z,102913.01
2019-01-02T03:05:28.939Z,102913.52
2019-01-02T03:06:33.847Z,102909.59
2019-01-02T03:07:39.033Z,102907.41
2019-01-02T03:08:44.321Z,102908.70
2019-01-02T03:09:49.317Z,102904.29
2019-01-02T03:10:54.497Z,102906.52
2019-01-02T03:11:59.673Z,102912.66
2019-01-02T03:13:04.644Z,102910.88
2019-01-02T03:14:09.723Z,102910.92
2019-01-02T03:15:15.071Z,102913.10
2019-01-02T03:16:19.973Z,102912.20
2019-01-02T03:17:25.241Z,102910.02
2019-01-02T03:18:30.675Z,102910.53
2019-01-02T03:19:35.755Z,102916.64
2019-01-02T03:20:40.960Z,102915.39
2019-01-02T03:21:45.881Z,102915.84
2019-01-02T03:22:51.234Z,102913.62
2019-01-02T03:23:56.429Z,102924.65
2019-01-02T03:25:01.348Z,102923.33
2019-01-02T03:26:06.834Z,102922.07
2019-01-02T03:27:12.042Z,102926.48
2019-01-02T03:28:17.446Z,102927.80
2019-01-02T03:29:22.645Z,102928.22
2019-01-02T03:30:27.912Z,102921.63
2019-01-02T03:31:33.350Z,102930.41
2019-01-02T03:32:38.713Z,102932.56
2019-01-02T03:33:43.977Z,102930.41
2019-01-02T03:34:48.897Z,102929.89
2019-01-02T03:35:53.900Z,102928.61
2019-01-02T03:36:59.337Z,102932.98
2019-01-02T03:38:04.627Z,102925.06
2019-01-02T03:39:09.609Z,102920.69
2019-01-02T03:40:14.668Z,102925.06
2019-01-02T03:41:19.654Z,102919.80
2019-01-02T03:42:24.579Z,102923.30
2019-01-02T03:43:29.567Z,102925.48
2019-01-02T03:44:34.484Z,102921.98
2019-01-02T03:45:39.409Z,102920.24
2019-01-02T03:46:44.319Z,102923.75
2019-01-02T03:47:49.622Z,102931.21
2019-01-02T03:48:54.528Z,102929.03
2019-01-02T03:49:59.742Z,102932.11
2019-01-02T03:51:05.012Z,102935.17
2019-01-02T03:52:11.019Z,102937.36
2019-01-02T03:53:16.159Z,102932.98
2019-01-02T03:54:21.142Z,102930.34
2019-01-02T03:55:26.047Z,102932.98
2019-01-02T03:56:31.293Z,102936.52
2019-01-02T03:57:36.348Z,102933.49
2019-01-02T03:58:41.299Z,102939.16
2019-01-02T03:59:46.559Z,102940.89
2019-01-02T04:00:51.702Z,102940.89
2019-01-02T04:01:56.615Z,102937.00
2019-01-02T04:03:01.772Z,102936.52
2019-01-02T04:04:06.940Z,102931.34
2019-01-02T04:05:12.911Z,102939.67
2019-01-02T04:06:18.421Z,102934.42
2019-01-02T04:07:23.401Z,102928.76
2019-01-02T04:08:28.799Z,102927.47
2019-01-02T04:09:33.798Z,102935.80
2019-01-02T04:10:38.862Z,102934.03
2019-01-02T04:11:43.780Z,102932.72
2019-01-02T04:12:48.741Z,102941.02
2019-01-02T04:13:53.735Z,102925.19
2019-01-02T04:14:58.917Z,102943.62
2019-01-02T04:16:04.160Z,102936.22
2019-01-02T04:17:09.063Z,102941.02
2019-01-02T04:18:13.972Z,102937.99
2019-01-02T04:19:19.133Z,102933.16
2019-01-02T04:20:24.105Z,102936.22
2019-01-02T04:21:29.263Z,102941.44
2019-01-02T04:22:34.170Z,102937.54
2019-01-02T04:23:39.329Z,102939.34
2019-01-02T04:24:44.241Z,102934.48
2019-01-02T04:25:49.236Z,102933.97
2019-01-02T04:26:54.417Z,102932.66
2019-01-02T04:27:59.317Z,102934.42
2019-01-02T04:29:04.288Z,102927.89
2019-01-02T04:30:12.102Z,102926.22
2019-01-02T04:31:17.033Z,102938.09
2019-01-02T04:32:22.266Z,102931.05
2019-01-02T04:33:27.246Z,102940.66
2019-01-02T04:34:32.645Z,102945.48
2019-01-02T04:35:37.777Z,102937.57
2019-01-02T04:36:42.699Z,102939.34
2019-01-02T04:37:47.611Z,102938.44
2019-01-02T04:38:52.612Z,102945.03
2019-01-02T04:39:57.999Z,102940.18
2019-01-02T04:41:02.916Z,102940.53
2019-01-02T04:42:08.075Z,102937.03
2019-01-02T04:43:13.051Z,102941.86
2019-01-02T04:44:17.999Z,102947.58
2019-01-02T04:45:22.982Z,102946.27
2019-01-02T04:46:27.901Z,102946.27
2019-01-02T04:47:33.087Z,102944.94
2019-01-02T04:48:38.320Z,102935.29
2019-01-02T04:49:43.564Z,102944.52
2019-01-02T04:50:48.477Z,102935.74
2019-01-02T04:51:53.638Z,102934.48
2019-01-02T04:52:58.561Z,102939.34
2019-01-02T04:54:03.481Z,102947.25
2019-01-02T04:55:09.434Z,102938.53
2019-01-02T04:56:14.605Z,102934.16
2019-01-02T04:57:19.775Z,102935.98
2019-01-02T04:58:24.740Z,102935.53
2019-01-02T04:59:29.647Z,102933.34
2019-01-02T05:00:34.644Z,102933.28
2019-01-02T05:01:39.559Z,102932.84
2019-01-02T05:02:44.575Z,102937.22
2019-01-02T05:03:49.846Z,102934.58
2019-01-02T05:04:55.610Z,102936.31
2019-01-02T05:06:00.514Z,102941.11
2019-01-02T05:07:05.736Z,102942.04
2019-01-02T05:08:10.643Z,102945.55
2019-01-02T05:09:15.566Z,102942.91
2019-01-02T05:10:20.625Z,102950.76
2019-01-02T05:11:25.523Z,102948.98
2019-01-02T05:12:30.439Z,102953.39
2019-01-02T05:13:35.377Z,102954.72
2019-01-02T05:14:40.428Z,102956.48
2019-01-02T05:15:45.558Z,102957.86
2019-01-02T05:16:50.594Z,102960.95
2019-01-02T05:17:55.506Z,102950.40
2019-01-02T05:19:00.421Z,102957.89
2019-01-02T05:20:07.124Z,102952.62
2019-01-02T05:21:12.108Z,102957.00
2019-01-02T05:22:17.322Z,102957.41
2019-01-02T05:23:22.237Z,102958.67
2019-01-02T05:24:27.423Z,102951.20
2019-01-02T05:25:32.906Z,102949.41
2019-01-02T05:26:38.095Z,102948.98
2019-01-02T05:27:43.255Z,102952.14
2019-01-02T05:28:48.172Z,102953.91
2019-01-02T05:29:53.587Z,102957.47
2019-01-02T05:30:58.513Z,102959.72
2019-01-02T05:32:03.576Z,102966.80
2019-01-02T05:33:08.550Z,102960.68
2019-01-02T05:34:13.714Z,102962.45
2019-01-02T05:35:18.746Z,102967.72
2019-01-02T05:36:23.954Z,102960.70
2019-01-02T05:37:28.859Z,102963.86
2019-01-02T05:38:33.777Z,102964.30
2019-01-02T05:39:38.940Z,102967.91
2019-01-02T05:40:43.920Z,102972.30
2019-01-02T05:41:48.912Z,102978.05
2019-01-02T05:42:53.965Z,102978.92
2019-01-02T05:43:58.888Z,102975.48
2019-01-02T05:45:04.740Z,102977.25
2019-01-02T05:46:09.993Z,102981.65
2019-01-02T05:47:14.991Z,102977.27
2019-01-02T05:48:19.978Z,102982.55
2019-01-02T05:49:24.905Z,102983.86
2019-01-02T05:50:30.062Z,102982.16
2019-01-02T05:51:35.294Z,102977.69
2019-01-02T05:52:40.297Z,102983.86
2019-01-02T05:53:45.196Z,102984.80
2019-01-02T05:54:50.474Z,102982.55
2019-01-02T05:55:55.390Z,102986.92
2019-01-02T05:57:00.382Z,102982.06
2019-01-02T05:58:06.255Z,102986.41
2019-01-02T05:59:11.404Z,102982.45
2019-01-02T06:00:16.575Z,102984.20
2019-01-02T06:01:21.524Z,102989.02
2019-01-02T06:02:26.461Z,102985.94
2019-01-02T06:03:31.385Z,102985.52
2019-01-02T06:04:36.389Z,102989.02
2019-01-02T06:05:41.314Z,102988.16
2019-01-02T06:06:46.283Z,102991.63
2019-01-02T06:07:51.167Z,102990.31
2019-01-02T06:08:56.094Z,102989.45
2019-01-02T06:10:01.011Z,102993.77
2019-01-02T06:11:05.923Z,102991.99
2019-01-02T06:12:10.921Z,102995.50
2019-01-02T06:13:16.073Z,102990.67
2019-01-02T06:14:21.051Z,102993.25
2019-01-02T06:15:26.038Z,102998.92
2019-01-02T06:16:31.022Z,103001.95
2019-01-02T06:17:35.950Z,102999.31
2019-01-02T06:18:40.849Z,103001.50
2019-01-02T06:19:46.016Z,103003.71
2019-01-02T06:20:51.349Z,103002.91
2019-01-02T06:21:56.268Z,103005.63
2019-01-02T06:23:01.422Z,103005.27
2019-01-02T06:24:06.404Z,103013.20
2019-01-02T06:25:11.653Z,103010.20
2019-01-02T06:26:16.562Z,103003.25
2019-01-02T06:27:21.555Z,103010.73
2019-01-02T06:28:26.633Z,103009.50
2019-01-02T06:29:31.821Z,103017.86
2019-01-02T06:30:36.742Z,103016.18
2019-01-02T06:31:41.676Z,103014.44
2019-01-02T06:32:47.025Z,103018.84
2019-01-02T06:33:52.008Z,103017.58
2019-01-02T06:34:56.913Z,103021.48
2019-01-02T06:36:01.879Z,103016.20
2019-01-02T06:37:06.860Z,103020.58
2019-01-02T06:38:12.289Z,103012.23
2019-01-02T06:39:17.194Z,103021.81
2019-01-02T06:40:22.415Z,103026.22
2019-01-02T06:41:27.406Z,103025.33
2019-01-02T06:42:32.334Z,103023.50
2019-01-02T06:43:37.258Z,103020.41
2019-01-02T06:44:42.177Z,103026.98
2019-01-02T06:45:47.210Z,103021.70
2019-01-02T06:46:52.224Z,103023.41
2019-01-02T06:47:57.137Z,103024.28
2019-01-02T06:49:02.204Z,103025.60
2019-01-02T06:50:10.300Z,103027.84
2019-01-02T06:51:15.267Z,103026.53
2019-01-02T06:52:20.205Z,103035.70
2019-01-02T06:53:25.115Z,103033.96
2019-01-02T06:54:30.514Z,103041.42
2019-01-02T06:55:35.616Z,103026.47
2019-01-02T06:56:40.989Z,103028.21
2019-01-02T06:57:45.918Z,103029.11
2019-01-02T06:58:52.566Z,103030.85
2019-01-02T06:59:57.464Z,103030.80
2019-01-02T07:01:03.358Z,103033.41
2019-01-02T07:02:08.272Z,103033.83
2019-01-02T07:03:13.502Z,103035.14
2019-01-02T07:04:18.413Z,103041.25
2019-01-02T07:05:23.582Z,103043.44
2019-01-02T07:06:28.753Z,103040.80
2019-01-02T07:07:33.900Z,103046.50
2019-01-02T07:08:39.380Z,103045.19
2019-01-02T07:09:44.353Z,103041.66
2019-01-02T07:10:49.345Z,103048.72
2019-01-02T07:11:54.264Z,103036.46
2019-01-02T07:12:59.420Z,103047.91
2019-01-02T07:14:04.412Z,103046.16
2019-01-02T07:15:09.724Z,103047.98
2019-01-02T07:16:14.652Z,103049.78
2019-01-02T07:17:19.583Z,103056.87
2019-01-02T07:18:24.561Z,103063.89
2019-01-02T07:19:29.725Z,103062.16
2019-01-02T07:20:34.705Z,103065.30
2019-01-02T07:21:39.629Z,103064.88
2019-01-02T07:22:44.829Z,103068.38
2019-01-02T07:23:49.748Z,103068.84
2019-01-02T07:24:54.810Z,103065.77
2019-01-02T07:25:59.735Z,103067.08
2019-01-02T07:27:04.712Z,103065.38
2019-01-02T07:28:09.692Z,103081.14
2019-01-02T07:29:14.627Z,103072.36
2019-01-02T07:30:21.903Z,103070.59
2019-01-02T07:31:26.879Z,103075.41
2019-01-02T07:32:31.825Z,103081.11
2019-01-02T07:33:44.590Z,103080.69
2019-01-02T07:35:18.970Z,103080.24
2019-01-02T07:37:12.803Z,103074.91
2019-01-02T07:39:14.044Z,103087.22
2019-01-02T07:40:49.060Z,103085.96
2019-01-02T07:42:38.249Z,103086.41
2019-01-02T07:44:19.829Z,103088.17
2019-01-02T07:45:51.229Z,103091.23
2019-01-02T07:47:32.341Z,103102.73
2019-01-02T07:49:13.954Z,103100.13
2019-01-02T07:50:52.230Z,103103.63
2019-01-02T07:52:39.741Z,103101.44
2019-01-02T07:54:40.606Z,103107.16
2019-01-02T07:56:28.674Z,103104.60
2019-01-02T07:58:26.639Z,103107.30
2019-01-02T08:00:17.484Z,103108.16
2019-01-02T08:01:47.826Z,103107.69
2019-01-02T08:03:23.090Z,103121.29
2019-01-02T08:04:42.387Z,103111.19
2019-01-02T08:06:19.391Z,103117.34
2019-01-02T08:08:00.569Z,103119.08
2019-01-02T08:09:36.516Z,103117.26
2019-01-02T08:11:02.380Z,103121.66
2019-01-02T08:12:35.385Z,103115.52
2019-01-02T08:14:27.615Z,103118.63
2019-01-02T08:16:09.047Z,103122.11
2019-01-02T08:17:53.380Z,103122.53
2019-01-02T08:19:27.035Z,103123.91
2019-01-02T08:21:01.501Z,103131.31
2019-01-02T08:22:35.461Z,103131.76
2019-01-02T08:24:09.012Z,103126.91
2019-01-02T08:25:57.336Z,103130.36
2019-01-02T08:27:27.656Z,103126.83
2019-01-02T08:29:00.911Z,103121.92
2019-01-02T08:31:11.031Z,103126.30
2019-01-02T08:32:33.262Z,103121.03
2019-01-02T08:34:20.945Z,103120.66
2019-01-02T08:35:55.506Z,103124.62
2019-01-02T08:37:41.487Z,103129.47
2019-01-02T08:39:14.829Z,103140.44
2019-01-02T08:41:01.024Z,103133.84
2019-01-02T08:42:45.611Z,103132.47
2019-01-02T08:44:18.397Z,103135.48
2019-01-02T08:46:19.559Z,103135.88
2019-01-02T08:47:46.134Z,103130.55
2019-01-02T08:49:07.433Z,103131.05
2019-01-02T08:50:32.437Z,103133.19
2019-01-02T08:52:08.390Z,103138.46
2019-01-02T08:53:34.758Z,103137.56
2019-01-02T08:55:15.078Z,103141.47
2019-01-02T08:57:14.456Z,103137.12
2019-01-02T08:59:01.945Z,103152.49
2019-01-02T09:00:42.724Z,103155.97
2019-01-02T09:02:13.154Z,103157.28
2019-01-02T09:03:57.553Z,103163.43
2019-01-02T09:05:19.305Z,103158.08
2019-01-02T09:07:26.640Z,103156.29
2019-01-02T09:09:07.295Z,103153.65
2019-01-02T09:10:47.316Z,103161.93
2019-01-02T09:12:09.437Z,103164.14
2019-01-02T09:13:49.934Z,103163.33
2019-01-02T09:15:31.298Z,103167.31
2019-01-02T09:16:48.422Z,103167.76
2019-01-02T09:18:33.789Z,103168.16
2019-01-02T09:19:53.646Z,103180.84
2019-01-02T09:21:36.217Z,103172.42
2019-01-02T09:23:03.357Z,103182.08
2019-01-02T09:25:04.574Z,103178.97
2019-01-02T09:27:00.025Z,103187.70
2019-01-02T09:28:19.183Z,103174.96
2019-01-02T09:29:51.799Z,103188.94
2019-01-02T09:31:23.224Z,103183.66
2019-01-02T09:33:08.079Z,103188.86
2019-01-02T09:34:51.368Z,103188.36
2019-01-02T09:36:43.380Z,103188.36
2019-01-02T09:38:13.546Z,103188.41
2019-01-02T09:40:04.665Z,103187.98
2019-01-02T09:41:32.101Z,103190.60
2019-01-02T09:42:56.895Z,103187.04
2019-01-02T09:44:54.821Z,103187.91
2019-01-02T09:46:48.986Z,103193.19
2019-01-02T09:48:33.565Z,103196.70
2019-01-02T09:50:05.858Z,103199.31
2019-01-02T09:51:45.821Z,103205.84
2019-01-02T09:53:22.482Z,103207.17
2019-01-02T09:54:51.442Z,103209.36
2019-01-02T09:56:43.547Z,103207.09
2019-01-02T09:58:38.409Z,103208.41
2019-01-02T10:00:21.713Z,103202.66
2019-01-02T10:02:05.097Z,103203.92
2019-01-02T10:03:48.991Z,103203.90
2019-01-02T10:05:34.016Z,103208.59
2019-01-02T10:07:00.184Z,103205.56
2019-01-02T10:08:44.038Z,103202.94
2019-01-02T10:10:25.300Z,103213.13
2019-01-02T10:11:39.327Z,103212.28
2019-01-02T10:12:54.594Z,103206.19
2019-01-02T10:14:15.554Z,103203.63
2019-01-02T10:15:53.582Z,103210.25
2019-01-02T10:17:42.307Z,103212.95
2019-01-02T10:19:27.335Z,103214.34
2019-01-02T10:21:09.857Z,103213.50
2019-01-02T10:22:51.845Z,103207.85
2019-01-02T10:24:47.039Z,103215.03
2019-01-02T10:26:27.463Z,103205.39
2019-01-02T10:28:28.620Z,103208.53
2019-01-02T10:30:17.792Z,103209.03
2019-01-02T10:32:00.113Z,103205.97
2019-01-02T10:33:42.145Z,103194.55
2019-01-02T10:35:10.077Z,103202.91
2019-01-02T10:37:02.082Z,103198.95
2019-01-02T10:38:44.140Z,103198.06
2019-01-02T10:40:21.128Z,103203.26
2019-01-02T10:42:00.232Z,103202.76
2019-01-02T10:44:08.062Z,103197.02
2019-01-02T10:45:51.361Z,103196.94
2019-01-02T10:47:31.249Z,103199.49
2019-01-02T10:49:02.460Z,103204.66
2019-01-02T10:50:31.813Z,103207.59
2019-01-02T10:52:19.199Z,103190.34
2019-01-02T10:53:58.571Z,103198.97
2019-01-02T10:55:26.701Z,103193.52
2019-01-02T10:56:52.952Z,103197.73
2019-01-02T10:58:42.824Z,103185.27
2019-01-02T11:00:20.515Z,103187.73
2019-01-02T11:02:01.868Z,103188.86
2019-01-02T11:03:29.932Z,103194.47
2019-01-02T11:05:06.849Z,103191.69
2019-01-02T11:06:49.717Z,103190.42
2019-01-02T11:08:05.413Z,103192.64
2019-01-02T11:09:47.189Z,103193.18
2019-01-02T11:11:31.566Z,103203.23
2019-01-02T11:13:04.157Z,103188.32
2019-01-02T11:14:29.258Z,103195.20
2019-01-02T11:16:09.661Z,103203.09
2019-01-02T11:17:50.586Z,103197.39
2019-01-02T11:19:51.676Z,103205.77
2019-01-02T11:21:32.292Z,103211.94
2019-01-02T11:23:33.169Z,103208.48
2019-01-02T11:25:04.486Z,103196.72
2019-01-02T11:26:43.736Z,103203.41
2019-01-02T11:28:34.793Z,103203.02
2019-01-02T11:30:06.552Z,103210.09
2019-01-02T11:31:51.583Z,103202.67
2019-01-02T11:33:21.059Z,103202.34
2019-01-02T11:34:52.373Z,103204.55
2019-01-02T11:36:13.097Z,103198.47
2019-01-02T11:37:31.996Z,103194.50
2019-01-02T11:39:00.577Z,103203.77
2019-01-02T11:40:42.330Z,103198.47
2019-01-02T11:42:17.805Z,103198.83
2019-01-02T11:43:58.457Z,103200.42
2019-01-02T11:45:06.942Z,103191.67
2019-01-02T11:46:11.858Z,103196.47
2019-01-02T11:47:17.259Z,103192.03
2019-01-02T11:48:22.185Z,103188.89
2019-01-02T11:49:27.106Z,103196.33
2019-01-02T11:50:32.042Z,103192.31
2019-01-02T11:51:36.970Z,103194.41
2019-01-02T11:52:41.981Z,103186.41
2019-01-02T11:53:46.959Z,103192.92
2019-01-02T11:54:51.889Z,103191.06
2019-01-02T11:55:56.808Z,103192.37
2019-01-02T11:57:01.720Z,103191.42
2019-01-02T11:58:06.713Z,103196.14
2019-01-02T11:59:11.716Z,103192.09
2019-01-02T12:00:17.560Z,103195.96
2019-01-02T12:01:22.567Z,103197.25
2019-01-02T12:02:27.498Z,103194.64
2019-01-02T12:03:32.420Z,103193.32
2019-01-02T12:04:37.347Z,103190.25
2019-01-02T12:05:42.530Z,103199.92
2019-01-02T12:06:47.458Z,103194.64
2019-01-02T12:07:52.684Z,103196.47
2019-01-02T12:08:57.640Z,103193.77
2019-01-02T12:10:02.556Z,103199.02
2019-01-02T12:11:08.793Z,103199.02
2019-01-02T12:12:13.710Z,103194.55
2019-01-02T12:13:18.635Z,103199.38
2019-01-02T12:14:23.853Z,103177.38
2019-01-02T12:15:29.157Z,103181.77
2019-01-02T12:16:34.102Z,103179.99
2019-01-02T12:17:39.355Z,103193.14
2019-01-02T12:18:44.268Z,103188.22
2019-01-02T12:19:49.191Z,103190.34
2019-01-02T12:20:54.208Z,103199.50
2019-01-02T12:21:59.150Z,103181.78
2019-01-02T12:23:04.419Z,103186.59
2019-01-02T12:24:09.329Z,103192.23
2019-01-02T12:25:14.290Z,103184.66
2019-01-02T12:26:19.274Z,103191.63
2019-01-02T12:27:24.195Z,103194.17
2019-01-02T12:28:29.111Z,103200.21
2019-01-02T12:29:34.029Z,103188.73
2019-01-02T12:30:39.191Z,103190.41
2019-01-02T12:31:44.421Z,103202.24
2019-01-02T12:32:49.352Z,103189.86
2019-01-02T12:33:54.597Z,103191.58
2019-01-02T12:34:59.861Z,103195.06
2019-01-02T12:36:05.159Z,103196.28
2019-01-02T12:37:10.226Z,103195.73
2019-01-02T12:38:15.290Z,103183.77
2019-01-02T12:39:20.217Z,103190.35
2019-01-02T12:40:25.126Z,103194.22
2019-01-02T12:41:30.121Z,103188.06
2019-01-02T12:42:35.046Z,103192.93
2019-01-02T12:43:40.234Z,103188.06
2019-01-02T12:44:45.396Z,103187.61
2019-01-02T12:45:50.560Z,103187.16
2019-01-02T12:46:55.757Z,103187.97
2019-01-02T12:48:00.682Z,103190.61
2019-01-02T12:49:05.618Z,103185.73
2019-01-02T12:50:10.831Z,103189.19
2019-01-02T12:51:15.748Z,103191.03
2019-01-02T12:52:20.666Z,103190.61
2019-01-02T12:53:25.587Z,103188.41
2019-01-02T12:54:30.543Z,103194.58
2019-01-02T12:55:35.534Z,103190.61
2019-01-02T12:56:40.470Z,103187.93
2019-01-02T12:57:45.488Z,103197.67
2019-01-02T12:58:50.734Z,103191.51
2019-01-02T12:59:55.689Z,103197.67
2019-01-02T13:01:06.427Z,103202.09
2019-01-02T13:02:28.350Z,103199.86
2019-01-02T13:04:13.286Z,103194.58
2019-01-02T13:05:44.329Z,103193.77
2019-01-02T13:07:35.201Z,103198.19
2019-01-02T13:09:10.225Z,103198.22
2019-01-02T13:10:57.687Z,103203.16
2019-01-02T13:12:36.178Z,103214.59
2019-01-02T13:14:18.417Z,103209.83
2019-01-02T13:16:00.065Z,103214.79
2019-01-02T13:17:19.059Z,103212.78
2019-01-02T13:18:50.263Z,103217.30
2019-01-02T13:20:32.511Z,103206.39
2019-01-02T13:22:12.910Z,103209.10
2019-01-02T13:23:50.159Z,103206.94
2019-01-02T13:25:45.006Z,103199.52
2019-01-02T13:27:40.102Z,103229.85
2019-01-02T13:29:47.118Z,103213.45
2019-01-02T13:31:11.149Z,103205.95
2019-01-02T13:32:36.564Z,103212.10
2019-01-02T13:34:20.083Z,103209.87
2019-01-02T13:36:02.693Z,103213.88
2019-01-02T13:37:16.111Z,103212.91
2019-01-02T13:38:45.144Z,103215.46
2019-01-02T13:40:36.023Z,103212.36
2019-01-02T13:41:53.862Z,103220.66
2019-01-02T13:43:23.757Z,103225.01
2019-01-02T13:45:06.813Z,103220.63
2019-01-02T13:46:20.669Z,103223.72
2019-01-02T13:48:01.147Z,103222.39
2019-01-02T13:49:40.679Z,103225.91
2019-01-02T13:51:04.003Z,103224.07
2019-01-02T13:52:09.241Z,103221.88
2019-01-02T13:53:15.141Z,103225.84
2019-01-02T13:54:20.225Z,103235.09
2019-01-02T13:55:25.377Z,103239.06
2019-01-02T13:56:32.406Z,103235.09
2019-01-02T13:57:37.898Z,103235.94
2019-01-02T13:58:43.163Z,103231.07
2019-01-02T13:59:48.076Z,103229.33
2019-01-02T14:00:53.262Z,103231.07
2019-01-02T14:01:59.426Z,103236.72
2019-01-02T14:03:04.311Z,103241.55
2019-01-02T14:04:10.107Z,103237.10
2019-01-02T14:05:18.437Z,103243.77
2019-01-02T14:06:23.360Z,103245.52